Hitchcock, South Dakota
Current Conditions -  °F | °C
As of 8:55 PM on Monday 20 Oct 2014 (Local Time) from KHON Reporting Station
Clear Clear  
Wind Chill: 52°   Ceiling: Unl
Heat Index: 52°   Visibility: 10mi
Dew Point: 34°   Wind: 7mph
Humidity: 50%   Direction: 130°SE
Pressure: 30.02"   Gusts: NA
Location:  44.63°N, 98.41°W
Report Text: KHON 210155Z AUTO 13006KT 10SM CLR 11/01 A3002 RMK AO2 SLP171 T01110011
Loading
Personal Weather Stations






























Interactive Weather Map
Tropical Storm Tracking
New forecast layout! Learn more

10-Day Weather Forecast

Advertisements
Track Severe Weather on mobile